Time;durP1;ratioP1;P1;durP2;ratioP2;P2;SDS_P1;SDS_P2;PMS_P1;PMS_P2;Temp;Humidity;BMP_temperature;BMP_pressure;BME280_temperature;BME280_humidity;BME280_pressure;Samples;Min_cycle;Max_cycle;Signal;HPM_P1;HPM_P2
2021/07/11 00:01:09;;;;;;;2.83;1.57;;;23.90;61.50;;;;;;5013923;28;20385;-65
2021/07/11 00:03:35;;;;;;;5.18;1.60;;;23.90;61.40;;;;;;5014443;28;20393;-66
2021/07/11 00:06:01;;;;;;;3.05;1.40;;;23.90;61.40;;;;;;5013462;28;20397;-65
2021/07/11 00:08:27;;;;;;;3.47;1.60;;;23.90;62.00;;;;;;5014370;28;20427;-65
2021/07/11 00:10:52;;;;;;;2.15;1.60;;;23.90;61.40;;;;;;5013045;28;20420;-66
2021/07/11 00:13:18;;;;;;;3.50;1.50;;;23.90;61.40;;;;;;5012645;28;20439;-65
2021/07/11 00:15:43;;;;;;;2.10;1.50;;;23.90;61.40;;;;;;5013917;28;20396;-65
2021/07/11 00:18:11;;;;;;;3.67;1.40;;;23.90;61.40;;;;;;5029458;28;20431;-65
2021/07/11 00:20:37;;;;;;;3.95;1.40;;;23.90;61.40;;;;;;5014194;28;20404;-65
2021/07/11 00:23:03;;;;;;;2.20;1.50;;;23.90;61.40;;;;;;5012742;28;20741;-65
2021/07/11 00:25:29;;;;;;;3.70;1.50;;;23.90;61.40;;;;;;5014071;28;20401;-65
2021/07/11 00:27:55;;;;;;;2.90;1.47;;;23.90;61.40;;;;;;5013980;28;20476;-66
2021/07/11 00:30:21;;;;;;;2.60;1.40;;;23.80;61.30;;;;;;5013994;28;20405;-66
2021/07/11 00:32:47;;;;;;;3.65;1.63;;;23.80;61.30;;;;;;5013898;28;20401;-65
2021/07/11 00:35:14;;;;;;;2.17;1.30;;;23.80;61.30;;;;;;5013374;28;20431;-65
2021/07/11 00:37:40;;;;;;;1.85;1.33;;;23.80;61.30;;;;;;5013497;28;20511;-66
2021/07/11 00:40:08;;;;;;;2.95;1.50;;;23.90;61.30;;;;;;5013509;28;20417;-65
2021/07/11 00:42:34;;;;;;;2.05;1.30;;;23.80;61.30;;;;;;5013842;28;20408;-65
2021/07/11 00:44:59;;;;;;;2.08;1.25;;;23.90;61.30;;;;;;5013211;28;20400;-65
2021/07/11 00:47:25;;;;;;;2.60;1.33;;;23.80;61.30;;;;;;5013702;28;20385;-65
2021/07/11 00:49:51;;;;;;;2.13;1.25;;;23.80;61.30;;;;;;5013497;28;20559;-65
2021/07/11 00:52:17;;;;;;;1.70;1.30;;;23.80;61.30;;;;;;5013245;28;20884;-65
2021/07/11 00:54:42;;;;;;;2.85;1.40;;;23.80;61.30;;;;;;5028182;28;20769;-66
2021/07/11 00:57:08;;;;;;;2.47;1.10;;;23.80;61.30;;;;;;5028032;28;20876;-65
2021/07/11 00:59:36;;;;;;;2.03;1.30;;;23.80;61.20;;;;;;5013524;28;20389;-65
2021/07/11 01:02:23;;;;;;;1.88;1.30;;;23.80;61.30;;;;;;5013454;28;20431;-66
2021/07/11 01:04:55;;;;;;;2.08;1.30;;;23.80;61.20;;;;;;5013134;28;20419;-66
2021/07/11 01:07:29;;;;;;;1.80;1.17;;;23.80;61.30;;;;;;5012629;28;20415;-65
2021/07/11 01:10:02;;;;;;;2.03;1.30;;;23.80;61.20;;;;;;5013140;28;20421;-65
2021/07/11 01:12:31;;;;;;;1.70;1.25;;;23.80;61.30;;;;;;5013243;28;20392;-65
2021/07/11 01:15:00;;;;;;;2.10;1.23;;;23.80;61.30;;;;;;5012706;28;20389;-65
2021/07/11 01:17:27;;;;;;;1.60;1.00;;;23.80;61.20;;;;;;5013162;28;20908;-66
2021/07/11 01:20:02;;;;;;;1.67;1.10;;;23.80;61.20;;;;;;5012950;28;20475;-66
2021/07/11 01:22:33;;;;;;;1.88;1.30;;;23.80;61.20;;;;;;5012938;28;20439;-65
2021/07/11 01:25:06;;;;;;;1.83;1.10;;;23.80;61.20;;;;;;5011456;28;20396;-66
2021/07/11 01:27:32;;;;;;;1.90;1.20;;;23.80;61.20;;;;;;5012930;28;20389;-65
2021/07/11 01:29:59;;;;;;;1.95;1.38;;;23.80;61.20;;;;;;5012749;28;20409;-66
2021/07/11 01:32:26;;;;;;;1.23;1.10;;;23.80;61.20;;;;;;5012544;28;20484;-65
2021/07/11 01:34:52;;;;;;;2.00;1.10;;;23.80;61.20;;;;;;5012543;28;20469;-66
2021/07/11 01:37:18;;;;;;;1.90;1.07;;;23.80;61.20;;;;;;5012347;28;20927;-65
2021/07/11 01:39:44;;;;;;;1.60;1.02;;;23.70;61.20;;;;;;5012214;28;20420;-65
2021/07/11 01:42:12;;;;;;;1.50;1.10;;;23.70;61.20;;;;;;5012652;28;20396;-65
2021/07/11 01:44:39;;;;;;;1.50;0.90;;;23.70;61.20;;;;;;5012608;28;20881;-66
2021/07/11 01:47:06;;;;;;;1.70;1.10;;;23.70;61.20;;;;;;5012188;28;20389;-65
2021/07/11 01:49:34;;;;;;;1.90;1.15;;;23.70;61.10;;;;;;5012287;28;20393;-65
2021/07/11 01:52:01;;;;;;;1.92;1.00;;;23.70;61.20;;;;;;5012551;28;20399;-66
2021/07/11 01:54:29;;;;;;;1.50;1.00;;;23.70;61.20;;;;;;5012398;28;20385;-65
2021/07/11 01:56:54;;;;;;;1.70;1.05;;;23.70;61.20;;;;;;5012472;28;20408;-66
2021/07/11 01:59:20;;;;;;;1.60;1.00;;;23.70;61.80;;;;;;5011900;28;20947;-65
2021/07/11 02:01:46;;;;;;;1.50;1.00;;;23.70;61.20;;;;;;5012085;28;20393;-65
2021/07/11 02:04:12;;;;;;;1.70;1.00;;;23.70;61.20;;;;;;5012276;28;20389;-65
2021/07/11 02:06:38;;;;;;;1.40;1.15;;;23.70;61.20;;;;;;5012202;28;20447;-66
2021/07/11 02:09:07;;;;;;;1.80;0.95;;;23.70;61.20;;;;;;5010547;28;20959;-65
2021/07/11 02:11:36;;;;;;;1.52;0.98;;;23.70;61.20;;;;;;5010791;28;20424;-65
2021/07/11 02:14:07;;;;;;;1.35;0.95;;;23.70;61.20;;;;;;5012017;28;20413;-65
2021/07/11 02:16:39;;;;;;;1.23;0.90;;;23.70;61.30;;;;;;5012156;28;20926;-65
2021/07/11 02:19:07;;;;;;;1.80;1.02;;;23.70;61.20;;;;;;5011675;28;20447;-65
2021/07/11 02:21:32;;;;;;;1.40;1.00;;;23.70;61.20;;;;;;5011965;28;20393;-66
2021/07/11 02:24:02;;;;;;;1.30;1.00;;;23.70;61.20;;;;;;5011509;28;20396;-65
2021/07/11 02:26:28;;;;;;;1.48;1.00;;;23.70;61.20;;;;;;5011625;28;20393;-65
2021/07/11 02:28:54;;;;;;;2.65;0.90;;;23.70;61.10;;;;;;5010302;28;20401;-65
2021/07/11 02:31:20;;;;;;;1.83;1.00;;;23.70;61.10;;;;;;5011188;28;20424;-65
2021/07/11 02:33:48;;;;;;;1.80;1.00;;;23.70;61.10;;;;;;5011737;28;20399;-65
2021/07/11 02:36:19;;;;;;;2.00;1.00;;;23.70;61.10;;;;;;5010723;28;20404;-65
2021/07/11 02:38:49;;;;;;;1.30;0.90;;;23.70;61.10;;;;;;5011445;28;20863;-65
2021/07/11 02:41:17;;;;;;;1.48;0.98;;;23.60;61.00;;;;;;5011307;28;20412;-65
2021/07/11 02:43:45;;;;;;;1.60;0.90;;;23.70;61.10;;;;;;5011738;28;20746;-65
2021/07/11 02:46:13;;;;;;;1.50;0.98;;;23.70;61.10;;;;;;5011276;28;20400;-65
2021/07/11 02:48:41;;;;;;;1.33;0.88;;;23.60;61.00;;;;;;5011760;28;20389;-65
2021/07/11 02:51:10;;;;;;;1.30;0.82;;;23.60;61.00;;;;;;5011242;28;20482;-65
2021/07/11 02:53:38;;;;;;;1.20;0.90;;;23.60;61.00;;;;;;5011654;28;20381;-65
2021/07/11 02:56:05;;;;;;;1.92;0.90;;;23.60;61.00;;;;;;5011708;28;20400;-65
2021/07/11 02:58:34;;;;;;;1.40;0.90;;;23.60;61.10;;;;;;5011657;28;20407;-65
2021/07/11 03:01:01;;;;;;;1.38;0.93;;;23.60;61.00;;;;;;5011605;28;20385;-65
2021/07/11 03:03:27;;;;;;;1.40;0.85;;;23.50;61.00;;;;;;5011416;28;20385;-65
2021/07/11 03:05:54;;;;;;;1.73;0.90;;;23.60;61.00;;;;;;5011582;28;20946;-65
2021/07/11 03:08:19;;;;;;;1.48;0.90;;;23.60;61.10;;;;;;5011717;28;20470;-65
2021/07/11 03:10:46;;;;;;;1.53;0.80;;;23.60;61.00;;;;;;5011420;28;20420;-65
2021/07/11 03:13:12;;;;;;;1.30;0.88;;;23.60;61.60;;;;;;5011213;28;20388;-65
2021/07/11 03:15:38;;;;;;;1.07;0.70;;;23.60;61.00;;;;;;5011529;28;20957;-65
2021/07/11 03:18:05;;;;;;;1.30;0.70;;;23.60;61.00;;;;;;5011939;28;20389;-65
2021/07/11 03:20:31;;;;;;;1.23;0.73;;;23.60;61.00;;;;;;5011483;28;20888;-65
2021/07/11 03:22:58;;;;;;;1.65;1.00;;;23.60;60.90;;;;;;5011441;28;20768;-65
2021/07/11 03:25:25;;;;;;;1.10;0.80;;;23.60;61.50;;;;;;5011008;28;20400;-65
2021/07/11 03:27:52;;;;;;;1.30;0.70;;;23.60;60.90;;;;;;5011420;28;20380;-66
2021/07/11 03:30:20;;;;;;;1.35;0.80;;;23.60;61.00;;;;;;5011218;28;20424;-65
2021/07/11 03:32:59;;;;;;;1.00;0.70;;;23.60;60.90;;;;;;5011447;28;20384;-65
2021/07/11 03:35:33;;;;;;;1.40;0.82;;;23.60;60.90;;;;;;5009459;28;20404;-65
2021/07/11 03:37:59;;;;;;;1.35;0.75;;;23.60;60.90;;;;;;5011388;28;20392;-65
2021/07/11 03:40:36;;;;;;;1.08;0.70;;;23.50;60.80;;;;;;5025884;28;20409;-65
2021/07/11 03:43:05;;;;;;;0.93;0.60;;;23.60;60.90;;;;;;5010938;28;20408;-65
2021/07/11 03:45:32;;;;;;;0.90;0.70;;;23.60;60.90;;;;;;5011312;28;20385;-66
2021/07/11 03:48:13;;;;;;;1.27;0.70;;;23.60;60.90;;;;;;5026193;28;20393;-65
2021/07/11 03:50:44;;;;;;;1.40;0.70;;;23.60;60.90;;;;;;5011140;28;20819;-65
2021/07/11 03:53:10;;;;;;;1.63;0.90;;;23.50;60.80;;;;;;5010695;28;20501;-65
2021/07/11 03:55:37;;;;;;;1.00;0.60;;;23.60;60.80;;;;;;5011190;28;20476;-66
2021/07/11 03:58:04;;;;;;;1.20;0.70;;;23.60;60.80;;;;;;5013132;28;20389;-65
2021/07/11 04:00:30;;;;;;;1.00;0.70;;;23.60;60.80;;;;;;5014653;28;20403;-65
2021/07/11 04:03:00;;;;;;;1.20;0.63;;;23.60;60.90;;;;;;5014499;28;20749;-65
2021/07/11 04:05:30;;;;;;;1.10;0.70;;;23.50;60.70;;;;;;5013986;28;20420;-65
2021/07/11 04:07:57;;;;;;;1.20;0.70;;;23.50;60.70;;;;;;5013223;28;20415;-65
2021/07/11 04:10:25;;;;;;;0.90;0.60;;;23.50;60.70;;;;;;5029426;28;20499;-65
2021/07/11 04:12:52;;;;;;;1.10;0.60;;;23.50;60.70;;;;;;5013232;28;20836;-65
2021/07/11 04:15:18;;;;;;;1.02;0.60;;;23.50;60.70;;;;;;5013912;28;20489;-65
2021/07/11 04:17:53;;;;;;;1.10;0.52;;;23.50;60.70;;;;;;5014082;28;20467;-65
2021/07/11 04:20:21;;;;;;;1.10;0.60;;;23.50;60.70;;;;;;5014304;28;20476;-65
2021/07/11 04:22:48;;;;;;;1.80;0.70;;;23.50;60.70;;;;;;5014208;28;20399;-65
2021/07/11 04:25:15;;;;;;;2.00;0.60;;;23.50;60.60;;;;;;5013658;28;20377;-65
2021/07/11 04:27:41;;;;;;;0.90;0.60;;;23.50;60.60;;;;;;5013850;28;20393;-65
2021/07/11 04:30:08;;;;;;;0.82;0.60;;;23.50;60.50;;;;;;5029061;28;20412;-65
2021/07/11 04:32:35;;;;;;;2.40;0.70;;;23.50;60.50;;;;;;5014005;28;20393;-65
2021/07/11 04:35:01;;;;;;;1.70;0.57;;;23.50;60.50;;;;;;5014031;28;20381;-69
2021/07/11 04:37:27;;;;;;;2.63;0.70;;;23.50;60.50;;;;;;5013493;28;20396;-66
2021/07/11 04:39:53;;;;;;;1.20;0.52;;;23.50;60.60;;;;;;5013492;28;20760;-65
2021/07/11 04:42:18;;;;;;;1.10;0.50;;;23.50;60.50;;;;;;5013680;28;20447;-65
2021/07/11 04:44:45;;;;;;;0.90;0.60;;;23.50;60.50;;;;;;5013858;28;20392;-65
2021/07/11 04:47:13;;;;;;;1.10;0.60;;;23.50;60.50;;;;;;5013300;28;20408;-65
2021/07/11 04:49:39;;;;;;;0.80;0.60;;;23.40;60.50;;;;;;5013594;28;20415;-65
2021/07/11 04:52:05;;;;;;;1.00;0.70;;;23.50;60.40;;;;;;5013788;28;20862;-66
2021/07/11 04:54:32;;;;;;;1.45;0.63;;;23.50;60.40;;;;;;5013605;28;20467;-65
2021/07/11 04:56:58;;;;;;;0.98;0.57;;;23.40;60.40;;;;;;5012853;28;20405;-65
2021/07/11 04:59:23;;;;;;;0.90;0.60;;;23.50;60.40;;;;;;5012748;28;20392;-65
2021/07/11 05:01:49;;;;;;;1.00;0.50;;;23.50;60.40;;;;;;5013072;28;20396;-65
2021/07/11 05:04:14;;;;;;;0.60;0.47;;;23.50;60.50;;;;;;5013583;28;20399;-65
2021/07/11 05:06:40;;;;;;;0.73;0.50;;;23.50;60.40;;;;;;5013309;28;20492;-65
2021/07/11 05:09:06;;;;;;;0.95;0.50;;;23.40;60.30;;;;;;5012604;28;20439;-65
2021/07/11 05:11:32;;;;;;;0.80;0.47;;;23.50;60.40;;;;;;5012980;28;20424;-66
2021/07/11 05:13:58;;;;;;;0.82;0.40;;;23.40;60.30;;;;;;5013165;28;20411;-65
2021/07/11 05:16:24;;;;;;;0.60;0.40;;;23.40;60.40;;;;;;5013416;28;20824;-65
2021/07/11 05:18:50;;;;;;;0.68;0.40;;;23.40;60.30;;;;;;5012894;28;20424;-65
2021/07/11 05:21:16;;;;;;;0.80;0.50;;;23.40;60.30;;;;;;5012593;28;20896;-65
2021/07/11 05:23:42;;;;;;;0.90;0.40;;;23.40;60.30;;;;;;5012799;28;20396;-65
2021/07/11 05:26:07;;;;;;;0.97;0.50;;;23.40;60.30;;;;;;5012638;28;20744;-65
2021/07/11 05:28:33;;;;;;;0.70;0.50;;;23.40;60.40;;;;;;5013030;28;20443;-65
2021/07/11 05:30:59;;;;;;;0.80;0.50;;;23.40;60.30;;;;;;5012844;28;21007;-65
2021/07/11 05:33:25;;;;;;;0.70;0.40;;;23.40;60.30;;;;;;5011126;28;20419;-65
2021/07/11 05:35:50;;;;;;;0.80;0.50;;;23.40;60.30;;;;;;5012808;28;20605;-65
2021/07/11 05:38:17;;;;;;;0.67;0.40;;;23.40;60.30;;;;;;5012866;28;20417;-65
2021/07/11 05:40:42;;;;;;;1.35;0.40;;;23.40;60.30;;;;;;5012460;28;20416;-65
2021/07/11 05:43:08;;;;;;;0.40;0.30;;;23.40;60.30;;;;;;5027372;28;20393;-65
2021/07/11 05:45:34;;;;;;;0.60;0.40;;;23.40;60.30;;;;;;5012471;28;20389;-65
2021/07/11 05:48:00;;;;;;;0.63;0.40;;;23.40;60.90;;;;;;5011342;28;20458;-65
2021/07/11 05:50:26;;;;;;;0.60;0.30;;;23.40;61.00;;;;;;5011297;28;20901;-65
2021/07/11 05:52:51;;;;;;;0.57;0.40;;;23.40;60.30;;;;;;5012542;28;20412;-65
2021/07/11 05:55:17;;;;;;;0.50;0.30;;;23.40;60.30;;;;;;5012085;28;20927;-65
2021/07/11 05:57:43;;;;;;;0.73;0.40;;;23.40;60.30;;;;;;5012434;28;20400;-65
2021/07/11 06:00:11;;;;;;;0.80;0.40;;;23.40;60.30;;;;;;5012324;28;20480;-65
2021/07/11 06:02:37;;;;;;;0.63;0.40;;;23.40;60.30;;;;;;5012245;28;20447;-65
2021/07/11 06:05:04;;;;;;;0.70;0.40;;;23.40;60.30;;;;;;5012379;28;20569;-65
2021/07/11 06:07:29;;;;;;;0.55;0.40;;;23.40;60.30;;;;;;5011858;28;20389;-65
2021/07/11 06:09:57;;;;;;;0.70;0.40;;;23.40;60.30;;;;;;5012120;28;20482;-65
2021/07/11 06:12:23;;;;;;;0.45;0.30;;;23.40;60.30;;;;;;5011930;28;20401;-65
2021/07/11 06:14:49;;;;;;;0.50;0.40;;;23.40;60.40;;;;;;5026701;28;20451;-66
2021/07/11 06:17:15;;;;;;;0.70;0.40;;;23.40;60.40;;;;;;5011371;28;20389;-66
2021/07/11 06:19:40;;;;;;;0.80;0.40;;;23.40;60.30;;;;;;5011213;28;20431;-65
2021/07/11 06:22:06;;;;;;;0.77;0.50;;;23.40;60.40;;;;;;5010880;28;20397;-65
2021/07/11 06:24:32;;;;;;;1.10;0.40;;;23.40;60.40;;;;;;5010542;28;20424;-65
2021/07/11 06:26:57;;;;;;;0.60;0.33;;;23.40;60.40;;;;;;5011753;28;20466;-65
2021/07/11 06:29:23;;;;;;;0.43;0.30;;;23.40;60.40;;;;;;5011553;28;20427;-66
2021/07/11 06:31:48;;;;;;;1.03;0.50;;;23.40;60.40;;;;;;5010623;28;20424;-66
2021/07/11 06:34:14;;;;;;;0.50;0.38;;;23.40;60.40;;;;;;5011855;28;20385;-65
2021/07/11 06:36:40;;;;;;;1.30;0.30;;;23.40;61.00;;;;;;5011835;28;20923;-65
2021/07/11 06:39:06;;;;;;;0.47;0.30;;;23.30;61.00;;;;;;5006487;28;20397;-65
2021/07/11 06:41:32;;;;;;;0.93;0.30;;;23.40;61.00;;;;;;4995466;28;20417;-64
2021/07/11 06:43:58;;;;;;;1.20;0.57;;;23.40;59.70;;;;;;4992254;28;20430;-64
2021/07/11 06:46:23;;;;;;;0.70;0.40;;;23.40;61.40;;;;;;5007269;28;20434;-65
2021/07/11 06:48:49;;;;;;;0.82;0.40;;;23.40;61.80;;;;;;4991988;28;20386;-64
2021/07/11 06:51:15;;;;;;;2.50;0.60;;;23.40;60.80;;;;;;4992400;28;20813;-66
2021/07/11 06:53:41;;;;;;;1.83;0.55;;;23.40;61.00;;;;;;5013063;28;20421;-65
2021/07/11 06:56:07;;;;;;;1.45;0.40;;;23.50;61.70;;;;;;5011733;28;20911;-65
2021/07/11 06:58:33;;;;;;;1.95;0.40;;;23.40;60.00;;;;;;5003969;28;20508;-66
2021/07/11 07:00:59;;;;;;;2.63;0.50;;;23.40;59.80;;;;;;4995059;28;20410;-64
2021/07/11 07:03:25;;;;;;;1.17;0.32;;;23.40;59.80;;;;;;4991504;28;20397;-65
2021/07/11 07:05:51;;;;;;;1.67;0.30;;;23.40;59.90;;;;;;4991560;28;20414;-66
2021/07/11 07:08:17;;;;;;;0.90;0.40;;;23.40;60.20;;;;;;4991884;28;20403;-65
2021/07/11 07:10:43;;;;;;;3.60;0.47;;;23.40;60.10;;;;;;4991533;28;20921;-65
2021/07/11 07:13:08;;;;;;;2.30;0.40;;;23.40;60.00;;;;;;4991350;28;20398;-65
2021/07/11 07:15:34;;;;;;;1.20;0.30;;;23.40;60.00;;;;;;4991225;28;20874;-68
2021/07/11 07:18:00;;;;;;;0.82;0.40;;;23.40;59.90;;;;;;4991861;28;20394;-65
2021/07/11 07:20:27;;;;;;;1.50;0.30;;;23.40;59.90;;;;;;4991823;28;20398;-65
2021/07/11 07:22:53;;;;;;;0.82;0.38;;;23.40;59.90;;;;;;4991314;28;20485;-66
2021/07/11 07:25:19;;;;;;;1.00;0.20;;;23.40;60.00;;;;;;4990503;28;20513;-66
2021/07/11 07:27:46;;;;;;;1.40;0.25;;;23.40;60.10;;;;;;4990488;28;20402;-66
2021/07/11 07:30:18;;;;;;;2.40;0.33;;;23.40;60.10;;;;;;4991010;28;20432;-66
2021/07/11 07:32:45;;;;;;;2.00;0.28;;;23.40;60.00;;;;;;4994325;28;20882;-67
2021/07/11 07:35:11;;;;;;;0.73;0.28;;;23.40;60.10;;;;;;4995637;28;20497;-65
2021/07/11 07:37:37;;;;;;;0.43;0.27;;;23.40;60.00;;;;;;4994854;28;20426;-65
2021/07/11 07:40:05;;;;;;;0.52;0.20;;;23.50;60.10;;;;;;4995274;28;20434;-65
2021/07/11 07:42:31;;;;;;;1.83;0.30;;;23.40;60.00;;;;;;4995465;28;20413;-66
2021/07/11 07:44:57;;;;;;;0.52;0.30;;;23.40;60.00;;;;;;4994594;28;21049;-66
2021/07/11 07:47:23;;;;;;;0.50;0.30;;;23.40;60.00;;;;;;4994543;28;20391;-65
2021/07/11 07:49:49;;;;;;;1.70;0.30;;;23.40;60.00;;;;;;4995030;28;20854;-66
2021/07/11 07:52:19;;;;;;;0.60;0.30;;;23.50;60.30;;;;;;4993618;28;20798;-68
2021/07/11 07:54:45;;;;;;;0.70;0.30;;;23.50;60.20;;;;;;5004332;28;20399;-67
2021/07/11 07:57:11;;;;;;;0.73;0.25;;;23.50;60.90;;;;;;5002634;28;20898;-67
2021/07/11 07:59:36;;;;;;;1.10;0.30;;;23.50;60.30;;;;;;5003926;28;20392;-66
2021/07/11 08:02:02;;;;;;;2.85;0.40;;;23.50;60.40;;;;;;5003815;28;20449;-67
2021/07/11 08:04:28;;;;;;;1.63;0.40;;;23.50;60.60;;;;;;5002316;28;20396;-66
2021/07/11 08:06:54;;;;;;;1.90;0.30;;;23.50;60.60;;;;;;5004496;28;20400;-66
2021/07/11 08:09:19;;;;;;;2.17;0.53;;;23.60;60.70;;;;;;4996704;28;20482;-66
2021/07/11 08:11:46;;;;;;;3.13;0.30;;;23.60;60.50;;;;;;4994822;28;20418;-66
2021/07/11 08:14:12;;;;;;;1.15;0.40;;;23.60;60.70;;;;;;4994917;28;20398;-66
2021/07/11 08:16:37;;;;;;;1.48;0.32;;;23.70;60.70;;;;;;4994673;28;20382;-66
2021/07/11 08:19:03;;;;;;;2.83;0.37;;;23.70;60.80;;;;;;4999608;28;20394;-67
2021/07/11 08:21:29;;;;;;;1.30;0.40;;;23.70;60.80;;;;;;5000176;28;20385;-67
2021/07/11 08:23:56;;;;;;;1.70;0.40;;;23.70;60.70;;;;;;5001531;28;20421;-67
2021/07/11 08:26:22;;;;;;;3.10;0.40;;;23.70;60.70;;;;;;5002233;28;20399;-66
2021/07/11 08:28:47;;;;;;;2.20;0.30;;;23.70;60.70;;;;;;5000694;28;20390;-68
2021/07/11 08:31:13;;;;;;;2.90;0.40;;;23.70;60.70;;;;;;5003541;28;20912;-70
2021/07/11 08:33:39;;;;;;;2.70;0.40;;;23.70;60.80;;;;;;5003098;28;20390;-67
2021/07/11 08:36:05;;;;;;;2.45;0.32;;;23.80;60.80;;;;;;5001847;28;20845;-67
2021/07/11 08:38:31;;;;;;;2.77;0.30;;;23.80;60.60;;;;;;5001882;28;21012;-66
2021/07/11 08:40:57;;;;;;;4.50;0.50;;;23.80;60.70;;;;;;5003293;28;20895;-66
2021/07/11 08:43:24;;;;;;;4.00;0.45;;;23.90;60.70;;;;;;5002221;28;20498;-66
2021/07/11 08:45:50;;;;;;;1.10;0.30;;;23.90;60.60;;;;;;5002876;28;20426;-67
2021/07/11 08:48:16;;;;;;;2.47;0.37;;;23.90;60.50;;;;;;5001908;28;21118;-67
2021/07/11 08:50:42;;;;;;;1.75;0.40;;;23.90;60.50;;;;;;4999446;28;20452;-68
2021/07/11 08:53:15;;;;;;;1.50;0.30;;;23.90;60.20;;;;;;4995017;28;20862;-70
2021/07/11 08:55:43;;;;;;;2.33;0.30;;;23.90;60.20;;;;;;4997470;28;20520;-67
2021/07/11 08:58:12;;;;;;;1.70;0.30;;;23.90;60.10;;;;;;5003442;28;20900;-66
2021/07/11 09:00:39;;;;;;;4.35;0.40;;;23.90;60.20;;;;;;5004154;28;20451;-66
2021/07/11 09:03:06;;;;;;;1.60;0.25;;;23.90;60.20;;;;;;5013262;28;20397;-66
2021/07/11 09:05:40;;;;;;;2.00;0.40;;;23.80;60.20;;;;;;5012886;28;20447;-66
2021/07/11 09:08:16;;;;;;;2.92;0.40;;;23.90;60.20;;;;;;5010834;28;20397;-65
2021/07/11 09:10:51;;;;;;;2.20;0.50;;;23.80;60.20;;;;;;5000503;28;20409;-70
2021/07/11 09:13:19;;;;;;;1.80;0.30;;;23.80;60.00;;;;;;5002999;28;20424;-66
2021/07/11 09:15:50;;;;;;;2.22;0.40;;;23.80;60.00;;;;;;5003232;28;20399;-67
2021/07/11 09:18:25;;;;;;;3.03;0.50;;;23.80;59.90;;;;;;5002538;28;20492;-66
2021/07/11 09:20:56;;;;;;;1.70;0.20;;;23.80;59.70;;;;;;4999768;28;20746;-66
2021/07/11 09:23:22;;;;;;;1.20;0.30;;;23.80;59.70;;;;;;4999991;28;20404;-66
2021/07/11 09:26:06;;;;;;;1.35;0.30;;;23.80;59.60;;;;;;5000191;28;20398;-66
2021/07/11 09:28:37;;;;;;;0.98;0.30;;;23.80;59.60;;;;;;5002891;28;20430;-66
2021/07/11 09:31:14;;;;;;;0.93;0.22;;;23.80;59.60;;;;;;4998993;28;20940;-66
2021/07/11 09:34:00;;;;;;;1.00;0.30;;;23.80;59.50;;;;;;5001764;28;20406;-66
2021/07/11 09:36:27;;;;;;;0.68;0.20;;;23.80;59.60;;;;;;5018343;28;20423;-65
2021/07/11 09:38:55;;;;;;;0.57;0.40;;;23.80;59.40;;;;;;4996878;28;20406;-66
2021/07/11 09:41:27;;;;;;;0.60;0.40;;;23.80;59.50;;;;;;4991766;28;20397;-65
2021/07/11 09:43:55;;;;;;;1.35;0.25;;;23.80;59.50;;;;;;4993104;28;20485;-66
2021/07/11 09:46:23;;;;;;;0.80;0.28;;;23.80;59.40;;;;;;4991529;28;20498;-66
2021/07/11 09:48:49;;;;;;;1.13;0.30;;;23.80;59.40;;;;;;4992862;28;20425;-66
2021/07/11 09:51:19;;;;;;;0.70;0.20;;;23.80;59.40;;;;;;4991841;28;20472;-65
2021/07/11 09:53:45;;;;;;;0.93;0.20;;;23.80;59.40;;;;;;4992746;28;20878;-65
2021/07/11 09:56:32;;;;;;;0.90;0.20;;;23.80;59.40;;;;;;4991556;28;20410;-65
2021/07/11 09:59:01;;;;;;;0.70;0.40;;;23.80;59.40;;;;;;4991400;28;20405;-66
2021/07/11 10:01:29;;;;;;;0.85;0.30;;;23.80;59.30;;;;;;4991041;28;20406;-66
2021/07/11 10:03:55;;;;;;;0.60;0.30;;;23.80;59.40;;;;;;4992708;28;20421;-66
2021/07/11 10:06:21;;;;;;;2.08;0.28;;;23.80;59.30;;;;;;4991384;28;20429;-65
2021/07/11 10:08:46;;;;;;;0.60;0.30;;;23.80;59.10;;;;;;4992644;28;20790;-66
2021/07/11 10:11:12;;;;;;;0.60;0.30;;;23.80;59.20;;;;;;4992587;28;20423;-66
2021/07/11 10:13:38;;;;;;;0.93;0.40;;;23.80;59.10;;;;;;4992020;28;20469;-66
2021/07/11 10:16:09;;;;;;;0.40;0.20;;;23.80;59.10;;;;;;4992567;28;20402;-65
2021/07/11 10:18:35;;;;;;;1.58;0.30;;;23.80;59.60;;;;;;4992509;28;20387;-65
2021/07/11 10:21:01;;;;;;;0.57;0.20;;;23.90;59.10;;;;;;4992455;28;20391;-66
2021/07/11 10:23:33;;;;;;;1.42;0.25;;;23.90;59.00;;;;;;4992010;28;20817;-66
2021/07/11 10:26:20;;;;;;;0.60;0.20;;;23.90;59.10;;;;;;4992428;28;20434;-65
2021/07/11 10:28:50;;;;;;;1.10;0.40;;;23.90;59.00;;;;;;4992374;28;20394;-66
2021/07/11 10:31:26;;;;;;;0.82;0.30;;;23.90;58.90;;;;;;4992383;28;20430;-66
2021/07/11 10:33:56;;;;;;;0.80;0.28;;;23.90;58.90;;;;;;4992308;28;20410;-66
2021/07/11 10:36:31;;;;;;;0.50;0.30;;;23.90;58.90;;;;;;4992257;28;20399;-65
2021/07/11 10:38:57;;;;;;;0.77;0.22;;;23.90;58.90;;;;;;4992024;28;20758;-66
2021/07/11 10:41:28;;;;;;;1.05;0.50;;;23.90;58.90;;;;;;4992034;28;20493;-65
2021/07/11 10:44:04;;;;;;;0.63;0.20;;;23.90;58.80;;;;;;4992121;28;20867;-65
2021/07/11 10:46:50;;;;;;;1.30;0.30;;;23.90;58.90;;;;;;4992203;28;20485;-65
2021/07/11 10:49:22;;;;;;;0.77;0.30;;;23.90;58.90;;;;;;4991721;28;20482;-65
2021/07/11 10:51:55;;;;;;;1.60;0.30;;;23.90;58.90;;;;;;4991766;28;20893;-66
2021/07/11 10:54:30;;;;;;;0.38;0.20;;;23.80;58.90;;;;;;4992237;28;20412;-65
2021/07/11 10:56:57;;;;;;;1.02;0.32;;;23.80;58.90;;;;;;4991963;28;20433;-65
2021/07/11 10:59:40;;;;;;;0.52;0.35;;;23.80;58.90;;;;;;4991841;28;20394;-66
2021/07/11 11:02:19;;;;;;;0.80;0.30;;;23.80;58.90;;;;;;4991927;28;20398;-66
2021/07/11 11:04:47;;;;;;;0.70;0.30;;;23.80;58.90;;;;;;4991953;28;20462;-65
2021/07/11 11:07:19;;;;;;;0.70;0.38;;;23.80;58.90;;;;;;4994751;28;20394;-65
2021/07/11 11:09:48;;;;;;;0.40;0.20;;;23.80;58.90;;;;;;4995252;28;20390;-66
2021/07/11 11:12:33;;;;;;;0.82;0.40;;;23.80;59.00;;;;;;4995989;28;20402;-66
2021/07/11 11:15:01;;;;;;;0.75;0.35;;;23.80;58.90;;;;;;4995921;28;20457;-66
2021/07/11 11:17:26;;;;;;;0.68;0.35;;;23.80;58.90;;;;;;4995441;28;20390;-66
2021/07/11 11:19:53;;;;;;;0.70;0.40;;;23.80;58.90;;;;;;5002987;28;20765;-66
2021/07/11 11:22:18;;;;;;;1.10;0.47;;;23.80;59.50;;;;;;5006799;28;20483;-65
2021/07/11 11:24:44;;;;;;;1.23;0.40;;;23.80;58.60;;;;;;5009488;28;20531;-66
2021/07/11 11:27:10;;;;;;;12.63;0.80;;;23.80;58.60;;;;;;5012169;28;20401;-65
2021/07/11 11:29:35;;;;;;;2.93;0.50;;;23.80;58.90;;;;;;5003398;28;20421;-65
2021/07/11 11:32:11;;;;;;;2.10;0.60;;;23.80;58.90;;;;;;5005015;28;20427;-65
2021/07/11 11:34:37;;;;;;;2.22;0.50;;;23.80;59.00;;;;;;5003412;28;20401;-65
2021/07/11 11:37:04;;;;;;;1.90;0.73;;;23.80;58.90;;;;;;5003765;28;20406;-66
2021/07/11 11:39:31;;;;;;;1.10;0.50;;;23.90;59.00;;;;;;5002244;28;20745;-66
2021/07/11 11:41:57;;;;;;;1.95;0.52;;;23.90;59.10;;;;;;5003017;28;20886;-65
2021/07/11 11:44:27;;;;;;;2.20;0.60;;;23.90;59.10;;;;;;5004868;28;20491;-67
2021/07/11 11:46:56;;;;;;;1.00;0.52;;;23.80;59.10;;;;;;5005301;28;20381;-66
2021/07/11 11:49:25;;;;;;;4.83;0.90;;;23.80;59.10;;;;;;4995446;28;20397;-65
2021/07/11 11:51:56;;;;;;;13.38;1.20;;;23.80;59.20;;;;;;4993116;28;20422;-67
2021/07/11 11:54:34;;;;;;;11.98;1.40;;;23.80;59.10;;;;;;4993697;28;20457;-66
2021/07/11 11:57:01;;;;;;;9.45;1.23;;;23.80;58.90;;;;;;4995017;28;20490;-65
2021/07/11 11:59:28;;;;;;;3.90;0.80;;;23.80;58.70;;;;;;4994718;28;20390;-66
2021/07/11 12:02:11;;;;;;;3.33;0.70;;;23.80;58.80;;;;;;4994822;28;20425;-65
2021/07/11 12:04:37;;;;;;;3.13;0.70;;;23.80;59.10;;;;;;4994970;28;20382;-65
2021/07/11 12:07:07;;;;;;;2.50;0.50;;;23.80;59.10;;;;;;4995041;28;20386;-65
2021/07/11 12:09:34;;;;;;;2.15;0.68;;;23.80;59.20;;;;;;4994396;28;20387;-66
2021/07/11 12:12:03;;;;;;;2.90;0.60;;;23.80;59.30;;;;;;4994689;28;20429;-67
2021/07/11 12:14:30;;;;;;;2.40;0.70;;;23.80;59.40;;;;;;4993407;28;20485;-65
2021/07/11 12:17:17;;;;;;;4.25;0.70;;;23.80;59.30;;;;;;4993094;28;20510;-63
2021/07/11 12:19:45;;;;;;;1.60;0.63;;;23.80;59.40;;;;;;4993740;28;20397;-63
2021/07/11 12:22:29;;;;;;;1.70;0.90;;;23.70;59.50;;;;;;4994625;28;20403;-64
2021/07/11 12:25:01;;;;;;;2.17;1.00;;;23.70;59.40;;;;;;4994548;28;20386;-64
2021/07/11 12:27:27;;;;;;;3.88;1.15;;;23.80;59.80;;;;;;4994231;28;20395;-65
2021/07/11 12:30:03;;;;;;;4.13;1.20;;;23.90;59.50;;;;;;4993177;28;20801;-64
2021/07/11 12:32:42;;;;;;;3.35;1.00;;;23.90;59.20;;;;;;4994484;28;20770;-65
2021/07/11 12:35:08;;;;;;;2.90;0.98;;;23.90;59.20;;;;;;4994528;28;20382;-62
2021/07/11 12:37:34;;;;;;;1.40;0.70;;;23.90;59.20;;;;;;4993798;28;20810;-64
2021/07/11 12:40:00;;;;;;;1.35;0.70;;;23.90;59.20;;;;;;4994120;28;20411;-62
2021/07/11 12:42:26;;;;;;;1.73;0.77;;;24.00;59.30;;;;;;4993103;28;20402;-69
2021/07/11 12:44:52;;;;;;;3.72;0.90;;;24.00;59.40;;;;;;4992397;28;20405;-63
2021/07/11 12:47:19;;;;;;;3.00;1.20;;;24.00;59.60;;;;;;5003176;28;20396;-62
2021/07/11 12:49:54;;;;;;;1.95;0.90;;;24.00;59.90;;;;;;5012484;28;20392;-64